CMA CGM Homere — MQBL6 — position and weather

sailwx.info

Track history (hours):
 
Tides and Currents Weather Stations Pressure Air Temp Water Temp Dewpoint Dewpoint Depression Visibility Wind Speed Wind Dir Waves Ship Positions

CMA CGM Homere

Last reported at 2014-Dec-07 01:23 UTC. Time now 2014-Dec-21 15:54 UTC.
Position N 37°18' W 031°32'.
Warning: this ship's position is 14 days out of date.

Length 170 m; draft 9.4 m.

Type: Ship (hazmat cat A). MMSI: 235052314.

Date/timePositionNaut miles runAvg speedWind from/ knotsBaromVisibWave heightAir tempDewpointWater temp
2014-Dec-07 01:23N 37°18' W 031°32'1618.1
2014-Dec-07 00:29N 37°27' W 031°16'1718.1
2014-Dec-06 23:33N 37°37' W 030°58'1818.4
2014-Dec-06 22:33N 37°48' W 030°39'1818.3
2014-Dec-06 21:33N 37°58' W 030°20'1818.2
2014-Dec-06 20:33N 38°09' W 030°02'1818.2
2014-Dec-06 19:33N 38°19' W 029°43'1818.4
2014-Dec-06 18:33N 38°29' W 029°23'1818.3
2014-Dec-06 17:33N 38°40' W 029°04'1918.5
2014-Dec-06 16:33N 38°51' W 028°44'1918.6
2014-Dec-06 15:33N 39°01' W 028°25'1918.6
2014-Dec-06 14:33N 39°11' W 028°05'1818.4
2014-Dec-06 13:33N 39°21' W 027°45'1818.0
2014-Dec-06 12:33N 39°31' W 027°25'  
2014-Dec-03 13:06N 49°42' W 000°44'1120.1
2014-Dec-03 12:33N 49°38' W 000°29'1717.4
2014-Dec-03 11:33N 49°31' W 000°04'10 8.8
2014-Dec-03 10:28N 49°29' E 000°10'0 0.0
2014-Dec-03 09:31N 49°29' E 000°10'0 0.0
2014-Dec-03 08:31N 49°29' E 000°10'0 0.0
2014-Dec-03 07:31N 49°29' E 000°10'0 0.0
2014-Dec-03 06:28N 49°29' E 000°10'0 0.0
2014-Dec-03 05:31N 49°29' E 000°10'0 0.0
2014-Dec-03 04:31N 49°29' E 000°10'0 0.0
2014-Dec-03 03:31N 49°29' E 000°10'0 0.0
2014-Dec-03 02:31N 49°29' E 000°10'0 0.0
2014-Dec-03 01:31N 49°29' E 000°10'0 0.0
2014-Dec-03 00:31N 49°29' E 000°10'0 0.0
2014-Dec-02 23:31N 49°29' E 000°10'0 0.0
2014-Dec-02 22:31N 49°29' E 000°10'0 0.0
2014-Dec-02 21:31N 49°29' E 000°10'0 0.0
2014-Dec-02 20:31N 49°29' E 000°10'0 0.0
2014-Dec-02 19:31N 49°29' E 000°10'0 0.0
2014-Dec-02 18:31N 49°29' E 000°10'0 0.0
2014-Dec-02 17:31N 49°29' E 000°10'0 0.0
2014-Dec-02 16:31N 49°29' E 000°10'0 0.0
2014-Dec-02 15:31N 49°29' E 000°10'0 0.0
2014-Dec-02 14:31N 49°29' E 000°10'0 0.0
2014-Dec-02 13:31N 49°29' E 000°10'0 0.0
2014-Dec-02 12:31N 49°29' E 000°10'5 5.1
2014-Dec-02 11:33N 49°30' E 000°03'1010.1
2014-Dec-02 10:33N 49°34' W 000°12'4 4.1
2014-Dec-02 09:31N 49°36' W 000°17'0 0.0
2014-Dec-02 08:31N 49°36' W 000°17'0 0.0
2014-Dec-02 07:25N 49°36' W 000°17'0 0.0
2014-Dec-02 06:31N 49°36' W 000°17'0 0.1
2014-Dec-02 05:31N 49°36' W 000°17'0 0.0
2014-Dec-02 04:31N 49°36' W 000°17'1110.9
2014-Dec-02 03:33N 49°45' W 000°26'4513.8
2014-Dec-02 00:16N 50°27' W 000°00'1315.2
2014-Dec-01 23:25N 50°31' E 000°19'1315.1
2014-Dec-01 22:33N 50°36' E 000°38'1514.6
2014-Dec-01 21:34N 50°45' E 000°55'1513.5
2014-Dec-01 20:28N 50°56' E 001°12'1112.3
2014-Dec-01 19:32N 51°04' E 001°25'1212.1
2014-Dec-01 18:33N 51°11' E 001°40'1313.2
2014-Dec-01 17:34N 51°21' E 001°53'1515.0
2014-Dec-01 16:33N 51°33' E 002°07'1615.7
2014-Dec-01 15:33N 51°46' E 002°23'1515.5
2014-Dec-01 14:34N 51°57' E 002°40'1414.2
2014-Dec-01 13:34N 52°02' E 003°01'1515.0
2014-Dec-01 12:33N 52°03' E 003°26'1515.2
2014-Dec-01 11:33N 52°03' E 003°50'1211.6
2014-Dec-01 10:33N 51°58' E 004°08'1010.2
2014-Dec-01 09:33N 51°54' E 004°22'1 1.3
2014-Dec-01 08:31N 51°53' E 004°24'0 0.0
2014-Dec-01 07:31N 51°53' E 004°24'0 0.0
2014-Dec-01 06:31N 51°53' E 004°24'0 0.0
2014-Dec-01 05:31N 51°53' E 004°24'0 0.0
2014-Dec-01 03:28N 51°53' E 004°24'0 0.0
2014-Dec-01 02:31N 51°53' E 004°24'0 0.0
2014-Dec-01 01:31N 51°53' E 004°24'0 0.0
2014-Dec-01 00:31N 51°53' E 004°24'0 0.0
2014-Nov-30 23:31N 51°53' E 004°24'0 0.0
2014-Nov-30 22:31N 51°53' E 004°24'0 0.0
2014-Nov-30 21:31N 51°53' E 004°24'0 0.0
2014-Nov-30 20:31N 51°53' E 004°24'0 0.0
2014-Nov-30 19:31N 51°53' E 004°24'0 0.0
2014-Nov-30 18:31N 51°53' E 004°24'0 0.0
2014-Nov-30 17:31N 51°53' E 004°24'0 0.0
2014-Nov-30 16:31N 51°53' E 004°24'0 0.0
2014-Nov-30 15:31N 51°53' E 004°24'0 0.0
2014-Nov-30 14:31N 51°53' E 004°24'0 0.0
2014-Nov-30 13:31N 51°53' E 004°24'0 0.0
2014-Nov-30 12:31N 51°53' E 004°24'0 0.0
2014-Nov-30 11:31N 51°53' E 004°24'0 0.0
2014-Nov-30 10:31N 51°53' E 004°24'0 0.0
2014-Nov-30 09:31N 51°53' E 004°24'1 0.7
2014-Nov-30 08:33N 51°53' E 004°24'8 8.1
2014-Nov-30 07:33N 51°56' E 004°12'1111.4
2014-Nov-30 06:33N 52°00' E 003°54'1312.5
2014-Nov-30 05:34N 51°58' E 003°34'1413.5
2014-Nov-30 04:33N 51°54' E 003°13'1716.6
2014-Nov-30 03:33N 51°52' E 002°46'1616.3
2014-Nov-30 02:33N 51°52' E 002°20'1515.6
2014-Nov-30 01:33N 51°49' E 001°55'1312.8
2014-Nov-30 00:33N 51°51' E 001°35'1414.2
2014-Nov-29 23:33N 51°38' E 001°23'1717.5
2014-Nov-29 22:34N 51°29' E 000°59'1615.6
2014-Nov-29 21:33N 51°30' E 000°34'9 9.2
2014-Nov-29 20:34N 51°27' E 000°20'0 0.1
2014-Nov-29 19:34N 51°27' E 000°20'0 0.0
2014-Nov-29 18:34N 51°27' E 000°20'0 0.0
2014-Nov-29 17:34N 51°27' E 000°20'0 0.0
2014-Nov-29 16:34N 51°27' E 000°20'0 0.0
2014-Nov-29 15:34N 51°27' E 000°20'0 0.0
2014-Nov-29 14:34N 51°27' E 000°20'0 0.0
2014-Nov-29 13:34N 51°27' E 000°20'0 0.0
2014-Nov-29 12:34N 51°27' E 000°20'0 0.0
2014-Nov-29 11:34N 51°27' E 000°20'0 0.0
2014-Nov-29 10:34N 51°27' E 000°20'0 0.0
2014-Nov-29 09:34N 51°27' E 000°20'0 0.0
2014-Nov-29 08:34N 51°27' E 000°20'0 0.0
2014-Nov-29 07:34N 51°27' E 000°20'0 0.0
2014-Nov-29 06:34N 51°27' E 000°20'0 0.1
2014-Nov-29 05:34N 51°27' E 000°20'2 2.4
2014-Nov-29 04:34N 51°27' E 000°24'8 7.5
2014-Nov-29 03:33N 51°30' E 000°35'1413.5
2014-Nov-29 02:33N 51°29' E 000°56'1414.4
2014-Nov-29 01:34N 51°29' E 001°19'8 7.6
2014-Nov-29 00:34N 51°29' E 001°32'1 0.7
2014-Nov-28 23:33N 51°30' E 001°31'7 6.8
2014-Nov-28 22:33N 51°24' E 001°34'1111.4
2014-Nov-28 21:33N 51°13' E 001°39'1010.0
2014-Nov-28 20:33N 51°03' E 001°35'1312.6
2014-Nov-28 19:33N 50°52' E 001°25'1412.5
2014-Nov-28 18:27N 50°40' E 001°15'1412.4
2014-Nov-28 17:19N 50°31' E 000°57'912.0
2014-Nov-28 16:33N 50°28' E 000°44'1212.1
2014-Nov-28 15:33N 50°24' E 000°26'  
Track history (hours):
 
Tides and Currents Weather Stations Pressure Air Temp Water Temp Dewpoint Dewpoint Depression Visibility Wind Speed Wind Dir Waves Ship Positions

CMA CGM Homere

Last reported at 2014-Dec-07 01:23 UTC. Time now 2014-Dec-21 15:54 UTC.
Position N 37°18' W 031°32'.
Warning: this ship's position is 14 days out of date.

Length 170 m; draft 9.4 m.

Type: Ship (hazmat cat A). MMSI: 235052314.

Date/timePositionNaut miles runAvg speedWind from/ knotsBaromVisibWave heightAir tempDewpointWater temp
2014-Dec-07 01:23N 37°18' W 031°32'1618.1
2014-Dec-07 00:29N 37°27' W 031°16'1718.1
2014-Dec-06 23:33N 37°37' W 030°58'1818.4
2014-Dec-06 22:33N 37°48' W 030°39'1818.3
2014-Dec-06 21:33N 37°58' W 030°20'1818.2
2014-Dec-06 20:33N 38°09' W 030°02'1818.2
2014-Dec-06 19:33N 38°19' W 029°43'1818.4
2014-Dec-06 18:33N 38°29' W 029°23'1818.3
2014-Dec-06 17:33N 38°40' W 029°04'1918.5
2014-Dec-06 16:33N 38°51' W 028°44'1918.6
2014-Dec-06 15:33N 39°01' W 028°25'1918.6
2014-Dec-06 14:33N 39°11' W 028°05'1818.4
2014-Dec-06 13:33N 39°21' W 027°45'1818.0
2014-Dec-06 12:33N 39°31' W 027°25'  
2014-Dec-03 13:06N 49°42' W 000°44'1120.1
2014-Dec-03 12:33N 49°38' W 000°29'1717.4
2014-Dec-03 11:33N 49°31' W 000°04'10 8.8
2014-Dec-03 10:28N 49°29' E 000°10'0 0.0
2014-Dec-03 09:31N 49°29' E 000°10'0 0.0
2014-Dec-03 08:31N 49°29' E 000°10'0 0.0
2014-Dec-03 07:31N 49°29' E 000°10'0 0.0
2014-Dec-03 06:28N 49°29' E 000°10'0 0.0
2014-Dec-03 05:31N 49°29' E 000°10'0 0.0
2014-Dec-03 04:31N 49°29' E 000°10'0 0.0
2014-Dec-03 03:31N 49°29' E 000°10'0 0.0
2014-Dec-03 02:31N 49°29' E 000°10'0 0.0
2014-Dec-03 01:31N 49°29' E 000°10'0 0.0
2014-Dec-03 00:31N 49°29' E 000°10'0 0.0
2014-Dec-02 23:31N 49°29' E 000°10'0 0.0
2014-Dec-02 22:31N 49°29' E 000°10'0 0.0
2014-Dec-02 21:31N 49°29' E 000°10'0 0.0
2014-Dec-02 20:31N 49°29' E 000°10'0 0.0
2014-Dec-02 19:31N 49°29' E 000°10'0 0.0
2014-Dec-02 18:31N 49°29' E 000°10'0 0.0
2014-Dec-02 17:31N 49°29' E 000°10'0 0.0
2014-Dec-02 16:31N 49°29' E 000°10'0 0.0
2014-Dec-02 15:31N 49°29' E 000°10'0 0.0
2014-Dec-02 14:31N 49°29' E 000°10'0 0.0
2014-Dec-02 13:31N 49°29' E 000°10'0 0.0
2014-Dec-02 12:31N 49°29' E 000°10'5 5.1
2014-Dec-02 11:33N 49°30' E 000°03'1010.1
2014-Dec-02 10:33N 49°34' W 000°12'4 4.1
2014-Dec-02 09:31N 49°36' W 000°17'0 0.0
2014-Dec-02 08:31N 49°36' W 000°17'0 0.0
2014-Dec-02 07:25N 49°36' W 000°17'0 0.0
2014-Dec-02 06:31N 49°36' W 000°17'0 0.1
2014-Dec-02 05:31N 49°36' W 000°17'0 0.0
2014-Dec-02 04:31N 49°36' W 000°17'1110.9
2014-Dec-02 03:33N 49°45' W 000°26'4513.8
2014-Dec-02 00:16N 50°27' W 000°00'1315.2
2014-Dec-01 23:25N 50°31' E 000°19'1315.1
2014-Dec-01 22:33N 50°36' E 000°38'1514.6
2014-Dec-01 21:34N 50°45' E 000°55'1513.5
2014-Dec-01 20:28N 50°56' E 001°12'1112.3
2014-Dec-01 19:32N 51°04' E 001°25'1212.1
2014-Dec-01 18:33N 51°11' E 001°40'1313.2
2014-Dec-01 17:34N 51°21' E 001°53'1515.0
2014-Dec-01 16:33N 51°33' E 002°07'1615.7
2014-Dec-01 15:33N 51°46' E 002°23'1515.5
2014-Dec-01 14:34N 51°57' E 002°40'1414.2
2014-Dec-01 13:34N 52°02' E 003°01'1515.0
2014-Dec-01 12:33N 52°03' E 003°26'1515.2
2014-Dec-01 11:33N 52°03' E 003°50'1211.6
2014-Dec-01 10:33N 51°58' E 004°08'1010.2
2014-Dec-01 09:33N 51°54' E 004°22'1 1.3
2014-Dec-01 08:31N 51°53' E 004°24'0 0.0
2014-Dec-01 07:31N 51°53' E 004°24'0 0.0
2014-Dec-01 06:31N 51°53' E 004°24'0 0.0
2014-Dec-01 05:31N 51°53' E 004°24'0 0.0
2014-Dec-01 03:28N 51°53' E 004°24'0 0.0
2014-Dec-01 02:31N 51°53' E 004°24'0 0.0
2014-Dec-01 01:31N 51°53' E 004°24'0 0.0
2014-Dec-01 00:31N 51°53' E 004°24'0 0.0
2014-Nov-30 23:31N 51°53' E 004°24'0 0.0
2014-Nov-30 22:31N 51°53' E 004°24'0 0.0
2014-Nov-30 21:31N 51°53' E 004°24'0 0.0
2014-Nov-30 20:31N 51°53' E 004°24'0 0.0
2014-Nov-30 19:31N 51°53' E 004°24'0 0.0
2014-Nov-30 18:31N 51°53' E 004°24'0 0.0
2014-Nov-30 17:31N 51°53' E 004°24'0 0.0
2014-Nov-30 16:31N 51°53' E 004°24'0 0.0
2014-Nov-30 15:31N 51°53' E 004°24'0 0.0
2014-Nov-30 14:31N 51°53' E 004°24'0 0.0
2014-Nov-30 13:31N 51°53' E 004°24'0 0.0
2014-Nov-30 12:31N 51°53' E 004°24'0 0.0
2014-Nov-30 11:31N 51°53' E 004°24'0 0.0
2014-Nov-30 10:31N 51°53' E 004°24'0 0.0
2014-Nov-30 09:31N 51°53' E 004°24'1 0.7
2014-Nov-30 08:33N 51°53' E 004°24'8 8.1
2014-Nov-30 07:33N 51°56' E 004°12'1111.4
2014-Nov-30 06:33N 52°00' E 003°54'1312.5
2014-Nov-30 05:34N 51°58' E 003°34'1413.5
2014-Nov-30 04:33N 51°54' E 003°13'1716.6
2014-Nov-30 03:33N 51°52' E 002°46'1616.3
2014-Nov-30 02:33N 51°52' E 002°20'1515.6
2014-Nov-30 01:33N 51°49' E 001°55'1312.8
2014-Nov-30 00:33N 51°51' E 001°35'1414.2
2014-Nov-29 23:33N 51°38' E 001°23'1717.5
2014-Nov-29 22:34N 51°29' E 000°59'1615.6
2014-Nov-29 21:33N 51°30' E 000°34'9 9.2
2014-Nov-29 20:34N 51°27' E 000°20'0 0.1
2014-Nov-29 19:34N 51°27' E 000°20'0 0.0
2014-Nov-29 18:34N 51°27' E 000°20'0 0.0
2014-Nov-29 17:34N 51°27' E 000°20'0 0.0
2014-Nov-29 16:34N 51°27' E 000°20'0 0.0
2014-Nov-29 15:34N 51°27' E 000°20'0 0.0
2014-Nov-29 14:34N 51°27' E 000°20'0 0.0
2014-Nov-29 13:34N 51°27' E 000°20'0 0.0
2014-Nov-29 12:34N 51°27' E 000°20'0 0.0
2014-Nov-29 11:34N 51°27' E 000°20'0 0.0
2014-Nov-29 10:34N 51°27' E 000°20'0 0.0
2014-Nov-29 09:34N 51°27' E 000°20'0 0.0
2014-Nov-29 08:34N 51°27' E 000°20'0 0.0
2014-Nov-29 07:34N 51°27' E 000°20'0 0.0
2014-Nov-29 06:34N 51°27' E 000°20'0 0.1
2014-Nov-29 05:34N 51°27' E 000°20'2 2.4
2014-Nov-29 04:34N 51°27' E 000°24'8 7.5
2014-Nov-29 03:33N 51°30' E 000°35'1413.5
2014-Nov-29 02:33N 51°29' E 000°56'1414.4
2014-Nov-29 01:34N 51°29' E 001°19'8 7.6
2014-Nov-29 00:34N 51°29' E 001°32'1 0.7
2014-Nov-28 23:33N 51°30' E 001°31'7 6.8
2014-Nov-28 22:33N 51°24' E 001°34'1111.4
2014-Nov-28 21:33N 51°13' E 001°39'1010.0
2014-Nov-28 20:33N 51°03' E 001°35'1312.6
2014-Nov-28 19:33N 50°52' E 001°25'1412.5
2014-Nov-28 18:27N 50°40' E 001°15'1412.4
2014-Nov-28 17:19N 50°31' E 000°57'912.0
2014-Nov-28 16:33N 50°28' E 000°44'1212.1
2014-Nov-28 15:33N 50°24' E 000°26'  

Dump ship's entire track history